Waddell, Arizona
Current Conditions -  °F | °C
As of 12:58 PM on Friday 28 Nov 2014 (Local Time) from KLUF Reporting Station
Clear Clear  
Wind Chill: 75°   Ceiling: Unl
Heat Index: 75°   Visibility: 10mi
Dew Point: 29°   Wind: 1mph
Humidity: 19%   Direction: 70°ENE
Pressure: 29.98"   Gusts: NA
Location:  33.57°N, 112.43°W
Report Text: KLUF 281958Z AUTO 07001KT 10SM CLR 24/M01 A2998 RMK AO2 SLP146 T02401014 $
Loading
Personal Weather Stations






























Interactive Weather Map New forecast layout! Learn more

10-Day Weather Forecast

Advertisements
Track Severe Weather on mobile